Date,TemperatureHighF,TemperatureAvgF,TemperatureLowF,DewpointHighF,DewpointAvgF,DewpointLowF,HumidityHigh,HumidityAvg,HumidityLow,PressureMaxIn,PressureMinIn,WindSpeedMaxMPH,WindSpeedAvgMPH,GustSpeedMaxMPH,PrecipitationSumIn
2014-1-1,74.7,50.4,37.0,50.4,37.4,25.9,78,62,42,30.22,29.86,17,6,17,0.00
2014-1-2,49.3,34.7,26.4,26.1,21.0,17.6,72,58,36,30.50,30.22,16,6,16,0.00
2014-1-3,57.7,40.2,29.7,29.1,24.7,20.6,71,56,30,30.44,30.01,18,7,18,0.00
2014-1-4,73.8,54.3,40.3,52.6,44.0,26.8,88,69,45,30.01,29.73,16,8,16,0.00
2014-1-5,57.6,35.6,23.2,45.4,22.0,9.4,74,58,39,30.55,29.76,21,10,21,0.00
2014-1-6,40.3,25.2,16.7,11.9,7.9,4.3,58,48,29,30.75,30.55,12,4,12,0.00
2014-1-7,53.8,35.5,24.4,19.2,14.2,10.9,58,43,24,30.57,30.24,18,5,18,0.00
2014-1-8,50.5,44.4,39.6,48.6,38.2,19.1,93,81,42,30.24,30.08,20,8,20,0.06
2014-1-9,50.2,48.3,-42.5,48.2,46.0,-73.3,93,92,14,30.25,29.99,8,3,31,0.03
2014-1-10,70.3,59.9,49.1,62.7,54.8,41.6,96,84,58,29.99,29.67,13,3,13,0.03
2014-1-11,73.9,53.8,39.7,42.9,35.2,28.5,83,55,21,30.14,29.83,16,3,16,0.00
2014-1-12,73.2,57.9,45.0,56.5,40.5,30.0,82,55,28,30.06,29.80,33,9,33,0.00
2014-1-13,68.7,57.0,45.9,57.4,34.4,22.1,86,46,20,30.10,29.78,19,6,19,0.00
2014-1-14,69.6,50.8,38.5,36.9,26.8,20.2,59,41,25,30.38,30.01,17,4,17,0.00
2014-1-15,64.8,46.9,36.3,28.3,24.6,21.0,57,43,25,30.42,30.09,11,3,11,0.00
2014-1-16,64.2,54.0,43.3,36.1,29.7,21.4,57,40,30,30.20,30.00,10,4,10,0.00
2014-1-17,61.7,48.7,42.1,23.6,19.2,13.9,41,32,18,30.38,30.19,14,4,14,0.00
2014-1-18,74.3,53.1,39.6,33.9,27.4,19.9,51,38,22,30.19,30.03,14,4,14,0.00
2014-1-19,72.3,51.2,37.6,31.4,29.1,26.3,65,45,21,30.32,30.04,10,3,10,0.00
2014-1-20,77.4,58.3,45.3,42.9,33.7,28.1,59,41,22,30.24,29.82,13,5,13,0.00
2014-1-21,55.0,46.2,40.1,28.5,20.6,14.7,46,37,22,30.46,30.16,16,5,16,0.00
2014-1-22,62.6,47.5,36.3,30.7,25.3,18.1,57,43,29,30.16,30.00,12,4,12,0.00
2014-1-23,48.6,36.4,27.7,24.9,13.5,2.4,51,39,31,30.75,30.15,23,9,23,0.00
2014-1-24,47.7,32.0,21.7,14.5,6.7,1.7,45,35,21,30.74,30.23,10,4,12,0.00
2014-1-25,69.3,48.2,31.6,34.6,26.0,14.5,59,43,27,30.23,29.95,8,2,9,0.00
2014-1-26,80.6,60.6,50.5,41.1,36.2,30.5,57,42,21,29.95,29.60,12,4,12,0.00
2014-1-27,55.8,40.0,28.4,33.7,11.8,0.0,52,32,20,30.32,29.76,20,9,20,0.00
2014-1-28,39.6,30.3,24.3,16.0,8.1,1.1,54,39,30,30.49,30.31,15,5,15,0.00
2014-1-29,52.7,34.6,22.6,18.6,14.8,12.3,65,46,25,30.44,30.14,14,4,14,0.00
2014-1-30,62.8,45.7,31.5,45.6,31.6,15.6,81,58,46,30.14,29.78,28,10,28,0.00
2014-1-31,78.6,63.4,51.3,59.7,53.4,45.6,87,72,44,29.87,29.74,18,8,18,0.00
2014-2-1,65.7,54.0,44.8,59.8,43.6,32.1,84,68,54,30.02,29.74,17,6,18,0.00
2014-2-2,44.6,35.3,31.1,31.9,29.1,26.0,88,78,60,30.27,30.00,19,7,19,0.11
2014-2-3,46.4,37.7,31.5,36.8,31.1,26.6,83,77,66,30.27,29.99,9,4,9,0.00
2014-2-4,50.9,44.1,40.5,43.0,39.0,33.8,90,82,71,30.12,29.85,13,4,13,0.11
2014-2-5,40.5,30.9,24.8,34.1,21.0,15.4,79,66,57,30.54,30.12,17,8,17,0.00
2014-2-6,26.1,23.2,19.6,18.3,15.3,10.9,76,71,67,30.58,30.39,16,5,16,0.00
2014-2-7,35.1,30.7,25.7,27.8,22.7,17.7,78,72,66,30.39,30.19,9,3,9,0.00
2014-2-8,59.9,43.6,33.6,42.7,36.1,27.5,88,76,52,30.19,29.96,14,6,14,0.00
2014-2-9,49.3,44.0,38.7,43.9,40.1,35.4,90,86,79,30.13,29.99,12,4,12,0.00
2014-2-10,38.7,34.5,31.5,35.4,31.6,28.9,90,89,88,30.28,30.11,12,5,12,0.00
2014-2-11,35.1,32.6,30.0,29.8,27.9,24.8,90,83,77,30.34,30.21,12,4,12,0.00
2014-2-12,53.4,42.0,33.6,35.7,31.1,27.5,80,66,49,30.24,30.04,10,3,10,0.00
2014-2-13,70.3,47.8,33.6,43.1,35.9,27.9,83,66,36,30.05,29.84,14,4,14,0.00
2014-2-14,72.1,56.8,44.2,42.0,35.2,25.2,79,49,18,30.10,29.71,18,6,18,0.00
2014-2-15,73.8,53.1,39.7,38.6,32.8,28.8,67,49,25,30.14,29.99,14,4,14,0.00
2014-2-16,77.4,61.0,49.6,60.3,51.8,37.8,91,73,53,30.05,29.88,19,6,19,0.00
2014-2-17,75.0,64.9,53.2,59.2,41.6,26.8,90,50,18,30.17,29.85,17,4,17,0.00
2014-2-18,83.1,64.2,47.7,60.6,47.3,32.5,77,55,42,30.13,29.84,15,4,17,0.00
2014-2-19,69.6,65.6,61.9,62.5,60.6,57.6,92,84,77,29.94,29.66,24,7,24,0.00
2014-2-20,71.6,64.4,48.0,63.2,47.1,28.8,84,58,30,30.12,29.64,45,8,45,0.00
2014-2-21,70.3,53.9,38.7,33.6,29.3,25.4,67,42,20,30.19,30.00,16,4,16,0.00
2014-2-22,77.4,61.5,49.6,53.1,42.9,32.2,73,51,38,30.02,29.82,16,7,16,0.00
2014-2-23,72.1,61.8,52.5,60.2,50.7,39.5,91,69,45,30.14,29.86,15,6,15,0.00
2014-2-24,60.3,53.7,46.4,49.4,43.3,38.2,77,68,61,30.19,30.04,7,3,7,0.00
2014-2-25,56.3,51.1,43.5,49.5,43.9,32.1,87,77,57,30.17,30.04,13,5,13,0.11
2014-2-26,46.6,39.5,33.4,35.4,22.8,17.7,73,52,35,30.34,30.16,19,6,19,0.00
2014-2-27,59.9,43.4,29.1,32.6,26.3,21.2,73,53,31,30.18,29.84,16,4,16,0.00
2014-2-28,85.8,58.8,43.3,52.3,39.3,32.4,79,54,16,29.84,29.65,16,7,16,0.00
2014-3-1,82.2,66.6,52.2,65.8,56.4,47.2,85,71,48,30.00,29.81,21,6,21,0.00
2014-3-2,70.2,33.5,20.5,63.7,27.5,13.0,84,79,68,30.36,29.96,23,10,23,0.00
2014-3-3,38.1,26.3,17.2,22.0,15.8,9.8,73,64,51,30.48,30.30,17,7,18,0.00
2014-3-4,56.3,39.9,30.6,33.5,26.7,20.2,71,60,42,30.32,30.00,10,3,10,0.00
2014-3-5,56.5,46.1,36.3,39.7,34.8,31.0,84,66,48,30.17,29.95,13,4,13,0.00
2014-3-6,60.3,49.1,42.6,40.3,38.0,35.6,82,66,46,30.26,30.05,13,4,13,0.00
2014-3-7,69.3,53.5,40.3,46.3,40.8,34.8,84,64,38,30.05,29.82,20,8,20,0.00
2014-3-8,55.6,49.4,40.5,51.5,41.7,33.5,87,75,66,30.34,29.85,16,7,17,0.00
2014-3-9,67.1,50.3,38.7,46.1,38.8,32.2,80,66,46,30.37,30.19,10,4,10,0.00
2014-3-10,81.9,61.5,45.3,55.7,46.1,40.6,85,61,30,30.20,29.88,14,4,14,0.00
2014-3-11,88.0,68.9,57.0,59.3,54.4,38.8,88,64,25,29.89,29.52,20,6,20,0.00
2014-3-12,64.9,54.5,45.9,39.1,30.1,22.1,64,42,20,30.33,29.83,23,8,23,0.00
2014-3-13,72.9,55.2,39.2,33.2,29.0,25.4,66,39,21,30.34,30.06,15,4,15,0.00
2014-3-14,75.9,60.9,47.7,54.4,46.4,32.7,78,60,43,30.07,29.95,17,7,17,0.00
2014-3-15,67.1,62.5,55.9,62.7,58.0,52.7,90,86,70,30.00,29.69,14,5,14,0.50
2014-3-16,56.3,48.4,42.8,53.4,41.7,33.7,92,78,68,30.11,29.79,23,9,23,0.03
2014-3-17,66.7,50.4,38.5,35.2,31.6,27.9,70,51,26,30.09,29.70,12,4,14,0.00
2014-3-18,86.5,65.3,49.3,50.6,40.9,30.7,63,43,24,29.90,29.57,23,9,23,0.00
2014-3-19,68.9,57.7,46.9,38.4,34.3,31.1,58,42,26,30.23,29.90,17,6,17,0.00
2014-3-20,77.9,59.3,42.3,37.7,34.8,30.6,71,44,21,30.25,30.01,12,4,12,0.00
2014-3-21,82.8,67.5,54.5,60.4,50.8,34.4,70,56,39,30.01,29.81,21,7,21,0.00
2014-3-22,69.3,61.3,52.5,60.1,52.0,42.6,88,72,52,30.14,29.92,14,4,14,0.00
2014-3-23,61.2,53.3,48.7,46.7,35.8,29.2,79,52,39,30.41,30.12,15,6,15,0.00
2014-3-24,71.8,55.5,41.4,45.2,38.5,31.9,72,54,36,30.29,30.03,8,2,9,0.00
2014-3-25,68.7,55.7,44.2,40.5,31.5,24.4,67,42,23,30.43,30.18,10,5,11,0.00
2014-3-26,62.8,55.0,49.1,52.3,40.8,30.4,76,59,45,30.23,29.92,21,10,21,0.03
2014-3-27,85.8,68.8,58.8,67.8,61.3,51.8,93,78,55,29.93,29.68,26,9,26,0.03
2014-3-28,83.3,70.2,57.4,67.4,59.6,42.3,91,71,44,30.09,29.76,14,5,14,0.00
2014-3-29,78.3,61.2,47.8,44.5,39.7,33.9,73,50,22,30.34,30.09,9,4,13,0.00
2014-3-30,81.1,66.1,53.2,49.7,42.0,36.1,59,43,27,30.26,29.99,21,8,21,0.00
2014-3-31,85.1,69.5,57.9,61.1,56.0,47.8,82,64,44,30.00,29.85,19,9,19,0.00
2014-4-1,86.5,74.3,66.4,66.1,63.2,59.3,84,70,49,30.03,29.88,19,8,19,0.00
2014-4-2,82.2,75.4,71.1,70.9,67.3,65.6,86,77,60,29.91,29.74,21,8,21,0.00
2014-4-3,85.5,76.8,70.0,70.6,68.2,48.2,84,75,46,29.88,29.65,24,8,24,0.00
2014-4-4,70.7,59.2,47.5,48.0,37.8,34.6,64,46,31,30.25,29.88,11,4,12,0.00
2014-4-5,58.6,55.3,53.1,45.9,40.1,34.0,70,57,48,30.20,29.98,12,5,13,0.00
2014-4-6,53.4,51.4,48.7,50.3,46.5,42.3,90,84,67,30.00,29.79,12,4,12,0.33
2014-4-7,71.4,57.4,50.2,52.0,49.3,45.3,91,76,46,30.06,29.81,9,2,9,0.00
2014-4-8,73.6,61.2,52.3,48.7,40.4,33.1,79,51,25,30.22,30.04,13,4,13,0.00
2014-4-9,84.4,65.9,50.4,49.5,44.0,39.2,70,48,29,30.27,30.05,17,5,17,0.00
2014-4-10,88.0,73.3,59.7,58.4,54.0,48.5,78,53,34,30.05,29.88,25,9,25,0.00
2014-4-11,86.2,73.2,62.6,65.2,60.5,54.9,83,65,49,30.06,29.93,20,8,20,0.00
2014-4-12,85.8,74.9,67.5,64.3,62.3,59.8,80,66,48,29.98,29.78,20,9,20,0.00
2014-4-13,78.1,70.9,66.9,69.1,65.1,61.6,92,82,69,29.85,29.59,22,7,22,0.30
2014-4-14,68.2,51.1,45.9,59.6,38.6,32.9,75,63,46,30.31,29.76,12,3,12,0.00
2014-4-15,67.1,52.5,37.9,34.1,29.8,24.3,74,45,22,30.38,30.15,7,2,7,0.00
2014-4-16,71.1,57.3,46.4,47.2,39.1,33.5,62,51,37,30.17,29.96,17,7,17,0.00
2014-4-17,62.6,58.7,54.3,56.8,51.7,44.5,85,78,61,30.25,30.04,12,4,12,0.00
2014-4-18,77.2,65.2,55.0,55.5,53.3,51.2,89,68,43,30.29,30.16,8,2,8,0.00
2014-4-19,78.3,68.0,56.8,58.6,54.3,48.6,78,63,46,30.25,30.13,12,4,12,0.00
2014-4-20,75.9,68.7,63.9,62.5,58.2,54.7,89,70,49,30.19,30.09,12,3,12,0.30
2014-4-21,82.2,70.7,64.0,69.9,64.4,60.2,90,81,64,30.12,29.95,12,3,12,0.03
2014-4-22,83.7,74.6,62.2,64.2,61.0,56.0,91,65,41,30.15,29.98,8,2,8,0.00
2014-4-23,86.2,74.8,63.7,65.2,61.0,57.7,82,64,44,30.00,29.74,16,5,16,0.00
2014-4-24,82.9,74.8,67.8,66.6,57.8,47.0,82,59,31,29.99,29.78,17,4,17,0.00
2014-4-25,84.0,71.9,57.9,50.6,47.4,40.0,66,43,28,30.11,29.91,13,5,13,0.00
2014-4-26,82.2,74.2,66.2,69.5,62.0,47.5,83,67,43,29.92,29.65,21,7,21,0.00
2014-4-27,90.1,79.7,73.2,72.1,60.5,38.8,86,58,22,29.68,29.43,18,4,18,0.00
2014-4-28,84.0,74.7,65.1,46.9,40.7,32.7,45,30,16,29.73,29.53,12,1,12,0.00
2014-4-29,75.4,68.6,61.0,47.9,40.4,35.3,49,37,24,29.99,29.65,7,2,7,0.00
2014-4-30,69.3,60.3,52.2,41.4,36.8,30.7,57,43,25,30.20,29.99,6,1,6,0.00
2014-5-1,73.8,61.7,47.7,42.4,37.2,33.3,74,44,24,30.19,30.02,7,0,7,0.00
2014-5-2,81.1,68.7,55.8,43.0,38.0,29.8,59,36,16,30.09,29.92,5,0,5,0.00
2014-5-3,88.3,71.8,53.2,48.0,43.1,36.3,69,40,16,30.06,29.98,7,1,7,0.00
2014-5-4,90.9,77.6,64.2,50.9,45.9,40.9,53,34,18,30.06,29.92,13,3,13,0.00
2014-5-5,75.6,69.9,64.9,48.4,45.2,41.9,52,41,38,29.95,29.92,12,4,12,0.00
2014-5-6,80.4,80.4,80.4,62.8,62.8,62.8,55,55,55,29.76,29.76,6,6,12,0.00
2014-5-7,79.5,79.5,79.5,66.3,66.3,66.3,64,64,64,29.78,29.78,7,7,15,0.00
2014-5-8,67.8,67.8,67.8,64.8,64.8,64.8,90,90,90,29.89,29.89,0,0,8,0.00
2014-5-9,75.7,75.7,75.7,64.0,64.0,64.0,67,67,67,29.93,29.93,1,1,3,0.00
2014-5-10,80.1,80.1,80.1,69.4,69.4,69.4,70,70,70,29.85,29.85,3,3,10,0.00
2014-5-11,81.5,81.5,81.5,69.9,69.9,69.9,68,68,68,29.78,29.78,7,7,16,0.00
2014-5-12,66.9,62.1,60.8,63.2,58.5,57.2,89,88,88,30.13,29.92,16,1,16,1.16
2014-5-13,67.5,61.4,55.6,57.2,50.9,47.5,88,69,55,30.34,30.11,7,1,7,0.03
2014-5-14,73.2,62.5,53.4,53.0,47.0,41.0,87,61,32,30.35,30.22,12,1,12,0.11
2014-5-15,82.6,68.7,54.9,49.4,45.1,37.3,74,47,21,30.29,30.09,8,0,8,0.00
2014-5-16,84.7,72.5,60.6,55.6,50.4,45.7,69,47,30,30.17,29.90,12,2,12,0.00
2014-5-17,81.9,73.9,64.6,62.7,55.1,45.2,64,52,39,30.05,29.88,12,2,12,0.00
2014-5-18,83.3,74.1,65.8,64.0,61.2,56.0,83,65,50,30.12,30.00,15,4,15,0.00
2014-5-19,85.5,75.8,66.7,65.3,62.4,59.6,81,64,49,30.08,29.94,18,5,18,0.00
2014-5-20,87.3,77.9,69.8,66.6,64.1,61.3,79,64,49,30.09,29.98,15,4,15,0.00
2014-5-21,87.6,78.6,70.9,67.3,64.9,62.9,79,64,47,30.13,29.99,14,3,14,0.00
2014-5-22,86.9,78.1,69.3,68.8,66.2,62.9,83,68,51,30.16,30.02,13,2,13,0.00
2014-5-23,82.9,77.0,71.4,68.4,66.4,64.5,81,70,60,30.14,30.03,8,1,8,0.00
2014-5-24,84.4,79.2,71.6,69.8,67.9,65.1,81,69,59,30.11,30.00,10,2,10,0.00
2014-5-25,82.6,75.7,72.5,71.2,68.7,64.8,86,79,64,30.07,29.93,22,2,22,0.17
2014-5-26,82.0,75.0,71.6,69.5,67.6,64.3,88,78,56,30.10,29.97,14,1,14,0.03
2014-5-27,75.9,71.2,65.7,68.4,65.2,62.3,90,82,71,30.00,29.90,8,0,9,0.28
2014-5-28,84.7,76.4,68.9,66.8,65.3,63.4,90,70,51,30.00,29.90,5,0,5,0.00
2014-5-29,88.7,77.8,68.0,68.3,66.1,63.5,88,69,49,29.97,29.84,4,0,4,0.00
2014-5-30,88.9,79.0,70.9,69.8,67.7,65.5,85,69,50,29.96,29.85,6,0,6,0.00
2014-5-31,87.3,79.3,73.6,71.9,70.0,68.2,86,74,58,30.01,29.91,6,0,6,0.00
2014-6-1,89.8,80.8,73.2,72.4,70.7,68.4,86,72,52,30.02,29.86,10,1,10,0.00
2014-6-2,90.1,82.1,75.2,72.6,71.0,69.3,84,70,53,30.06,29.88,11,2,11,0.00
2014-6-3,89.8,82.5,75.6,73.5,71.7,70.4,85,71,56,30.09,29.93,11,1,11,0.00
2014-6-4,91.6,83.1,75.6,73.8,71.9,70.3,86,70,54,29.94,29.81,14,3,14,0.00
2014-6-5,90.5,81.8,74.7,74.7,72.2,69.8,86,73,59,29.95,29.78,13,2,13,0.00
2014-6-6,92.1,83.2,75.6,73.7,72.0,70.6,85,70,52,30.04,29.80,15,2,15,0.00
2014-6-7,93.4,84.8,76.3,73.2,71.5,70.3,83,66,49,30.00,29.88,8,2,8,0.00
2014-6-8,87.3,80.4,71.6,74.2,71.1,66.0,87,74,64,30.06,29.81,13,1,13,0.14
2014-6-9,81.0,73.8,65.8,72.9,66.6,61.5,89,79,62,29.90,29.77,10,0,10,0.55
2014-6-10,84.7,74.8,66.4,64.6,62.0,58.4,76,65,50,29.93,29.81,4,0,4,0.00
2014-6-11,92.5,79.9,66.7,71.0,65.9,61.4,84,65,42,29.96,29.79,12,1,12,0.00
2014-6-12,82.9,79.0,73.8,73.5,71.0,68.4,88,77,67,30.03,29.75,16,2,16,0.09
2014-6-13,88.9,81.5,74.5,72.5,70.9,69.5,85,71,57,30.06,29.93,8,0,8,0.00
2014-6-14,90.1,82.2,75.6,74.8,72.2,69.8,85,72,59,29.98,29.84,14,2,14,0.00
2014-6-15,91.6,83.4,76.6,73.7,72.3,70.7,84,70,55,29.99,29.83,16,4,16,0.00
2014-6-16,93.0,84.4,76.5,74.3,72.4,71.1,85,69,50,30.08,29.94,14,4,14,0.00
2014-6-17,93.4,84.9,77.7,73.9,72.4,69.8,84,67,49,30.06,29.93,15,3,15,0.00
2014-6-18,92.7,84.0,77.2,74.6,72.4,69.2,83,69,52,30.05,29.95,15,4,15,0.00
2014-6-19,93.0,84.9,76.3,74.7,72.5,69.6,84,68,50,30.11,29.99,12,3,12,0.00
2014-6-20,91.4,84.3,77.7,73.1,70.9,66.4,81,65,49,30.16,30.04,8,0,8,0.00
2014-6-21,85.8,81.9,77.7,73.7,72.0,70.1,83,72,65,30.11,29.96,8,0,8,0.00
2014-6-22,81.5,75.6,70.5,74.4,70.8,66.8,93,85,74,30.06,29.87,12,1,12,1.00
2014-6-23,85.6,76.9,68.5,72.9,70.5,65.5,91,81,63,30.03,29.86,7,0,7,0.33
2014-6-24,88.7,78.1,73.0,77.8,71.5,65.4,86,81,59,30.11,30.00,12,0,12,0.00
2014-6-25,84.4,76.6,72.3,75.6,71.4,67.4,91,84,73,30.12,30.00,13,1,13,0.14
2014-6-26,88.3,79.7,72.9,74.1,71.9,69.4,90,78,62,30.09,29.90,14,2,14,0.00
2014-6-27,91.2,81.6,74.1,75.3,72.2,69.1,85,74,56,29.98,29.82,14,4,14,0.00
2014-6-28,91.2,83.5,78.1,76.0,74.0,72.6,84,74,60,29.97,29.86,18,5,18,0.00
2014-6-29,94.5,86.2,79.5,75.5,74.3,73.1,83,69,53,30.08,29.96,17,6,17,0.00
2014-6-30,95.2,85.6,77.2,74.4,72.4,69.0,83,66,44,30.04,29.88,17,7,17,0.00
2014-7-1,94.1,84.7,76.3,74.4,72.6,70.7,84,68,51,30.07,29.89,12,3,12,0.00
2014-7-2,93.4,84.7,77.4,74.3,71.3,66.0,81,65,47,30.15,29.99,8,0,8,0.00
2014-7-3,89.1,81.3,75.2,72.7,69.2,65.5,80,67,58,30.25,30.12,10,0,10,0.06
2014-7-4,93.4,83.6,75.2,72.7,70.1,66.9,80,65,48,30.28,30.17,10,1,10,0.00
2014-7-5,94.5,84.7,75.9,73.4,71.6,69.3,84,67,45,30.25,30.09,10,2,10,0.00
2014-7-6,94.6,84.2,74.5,72.8,71.0,68.8,84,66,46,30.12,30.00,9,2,9,0.00
2014-7-7,98.1,86.5,76.6,73.9,70.5,66.9,82,61,39,30.05,29.94,12,3,12,0.00
2014-7-8,97.0,87.1,77.9,74.9,70.7,67.6,79,60,39,30.07,29.95,10,2,10,0.00
2014-7-9,97.3,87.0,77.0,73.2,68.9,64.8,73,57,36,30.11,29.97,9,2,9,0.00
2014-7-10,97.7,87.4,76.8,71.6,67.5,62.8,76,54,33,30.11,29.99,14,3,14,0.00
2014-7-11,96.3,86.2,75.9,70.6,67.2,63.0,74,55,34,30.19,30.07,16,3,16,0.00
2014-7-12,97.7,86.9,75.0,68.3,65.9,58.6,72,52,33,30.23,30.08,11,2,11,0.00
2014-7-13,99.1,88.4,77.5,72.7,69.4,67.4,76,55,37,30.16,30.00,7,1,7,0.00
2014-7-14,99.1,85.0,77.4,73.9,70.5,67.7,89,64,38,30.06,29.94,17,2,17,0.78
2014-7-15,92.3,82.6,75.9,74.0,65.9,53.8,91,62,31,30.11,29.99,12,1,12,0.03
2014-7-16,90.3,80.4,72.7,72.7,65.9,55.3,83,62,46,30.07,29.90,13,1,13,0.28
2014-7-17,78.3,75.2,71.6,72.8,70.5,68.0,89,86,77,30.00,29.90,9,1,9,0.22
2014-7-18,75.7,71.5,67.3,68.2,65.4,63.3,89,81,72,30.08,29.98,6,0,6,0.00
2014-7-19,80.8,74.0,69.6,67.6,65.6,64.2,84,75,63,30.11,30.03,1,0,1,0.00
2014-7-20,93.6,79.7,68.2,76.7,70.4,64.0,87,74,55,30.10,29.97,8,1,8,0.00
2014-7-21,97.7,86.1,77.0,78.9,74.5,72.5,88,70,47,30.11,30.00,10,1,10,0.00
2014-7-22,97.7,87.5,78.8,77.6,73.9,70.8,83,66,43,30.14,30.04,7,0,7,0.00
2014-7-23,96.6,86.0,77.0,73.1,70.9,67.6,82,62,42,30.18,30.05,16,1,16,0.00
2014-7-24,96.6,85.1,76.3,72.3,69.3,66.0,78,61,38,30.12,29.99,7,0,8,0.00
2014-7-25,99.9,88.0,76.8,73.2,70.8,68.5,78,59,37,30.07,29.94,13,2,13,0.00
2014-7-26,99.3,89.2,78.8,73.7,71.2,67.5,78,57,36,30.06,29.94,12,3,13,0.00
2014-7-27,101.3,90.1,80.2,72.9,70.8,66.0,78,55,33,30.10,29.98,10,2,12,0.00
2014-7-28,95.9,88.3,82.0,75.5,70.4,63.2,73,56,37,30.19,30.05,8,1,8,0.00
2014-7-29,84.2,80.0,77.0,70.9,65.9,62.1,79,62,53,30.22,30.09,5,0,5,0.03
2014-7-30,91.6,82.4,75.9,74.5,69.9,64.6,85,67,54,30.12,29.93,14,4,14,0.00
2014-7-31,83.7,77.7,72.5,72.8,69.6,66.0,82,76,69,30.08,29.94,10,2,10,0.00
2014-8-1,82.8,75.0,70.9,70.3,67.8,66.0,89,79,64,30.12,30.03,6,0,6,0.00
2014-8-2,89.4,78.8,68.5,70.1,67.5,64.2,90,70,49,30.17,30.05,9,0,9,0.00
2014-8-3,91.2,82.0,72.3,71.1,68.8,67.3,85,66,47,30.16,30.03,8,1,8,0.00
2014-8-4,94.1,84.1,75.6,72.8,69.7,66.7,82,64,42,30.21,29.97,10,0,10,0.00
2014-8-5,96.3,85.5,76.1,74.5,71.2,68.1,81,64,43,30.08,29.87,10,1,10,0.00
2014-8-6,99.7,88.8,78.4,73.3,70.8,68.1,81,58,37,30.08,29.90,11,3,11,0.00
2014-8-7,97.0,88.1,79.5,75.2,71.9,69.3,78,60,44,30.00,29.83,10,2,10,0.00
2014-8-8,102.0,90.8,81.1,74.4,71.7,68.7,76,55,35,29.99,29.87,10,3,10,0.00
2014-8-9,101.3,91.0,81.0,73.5,70.6,65.4,73,53,32,30.04,29.93,9,2,9,0.00
2014-8-10,98.4,88.2,80.4,77.0,71.9,68.6,77,59,40,30.08,29.96,13,2,13,0.19
2014-8-11,95.7,86.9,79.3,73.0,69.9,66.6,74,58,39,30.12,30.00,8,1,8,0.19
2014-8-12,94.1,85.7,77.4,70.1,64.6,58.8,77,52,32,30.15,30.04,8,1,9,0.00
2014-8-13,95.0,83.8,72.9,63.9,61.8,59.4,71,49,33,30.16,30.02,9,0,9,0.00
2014-8-14,95.2,84.0,74.3,66.2,64.2,62.1,72,53,38,30.15,29.99,9,2,9,0.00
2014-8-15,99.5,86.9,75.6,72.0,66.7,63.0,74,53,34,30.06,29.87,12,3,12,0.00
2014-8-16,98.8,85.6,79.9,74.8,71.9,67.9,74,65,39,30.00,29.88,13,3,13,0.03
2014-8-17,85.8,79.9,73.0,76.2,72.5,68.4,90,79,65,30.09,29.92,16,2,16,1.85
2014-8-18,88.3,81.7,75.9,76.9,73.8,70.2,85,77,67,30.03,29.89,8,0,8,0.00
2014-8-19,93.0,84.9,76.6,75.3,71.6,68.5,80,66,48,30.00,29.88,13,2,13,0.00
2014-8-20,97.3,88.1,79.2,74.9,71.6,67.9,80,60,41,30.03,29.90,16,5,16,0.00
2014-8-21,97.9,87.8,79.2,76.2,71.9,65.7,84,62,37,30.09,29.98,14,5,14,0.00
2014-8-22,99.3,89.0,79.7,75.0,70.4,62.9,82,57,32,30.11,29.97,13,4,13,0.00
2014-8-23,98.8,88.1,78.4,70.2,68.3,64.4,73,54,34,30.06,29.92,10,3,10,0.00
2014-8-24,98.4,88.2,78.8,73.8,69.9,67.2,77,56,38,30.01,29.89,9,2,9,0.00
2014-8-25,99.5,89.1,79.2,74.0,70.4,67.2,74,56,38,30.04,29.91,8,1,8,0.00
2014-8-26,98.2,88.8,80.6,74.5,71.4,67.3,74,58,38,30.09,29.97,9,1,9,0.00
2014-8-27,95.9,87.6,79.7,73.3,70.0,62.6,77,57,43,30.13,29.99,9,1,9,0.00
2014-8-28,95.4,85.8,77.0,72.2,68.1,62.4,77,57,39,30.04,29.86,10,2,10,0.00
2014-8-29,92.8,82.3,72.9,72.7,70.4,67.0,87,68,44,29.99,29.88,12,1,12,0.22
2014-8-30,94.5,84.5,76.6,75.7,72.3,70.4,83,68,48,30.03,29.91,10,1,10,0.00
2014-8-31,95.9,85.9,77.4,75.5,72.4,69.5,83,66,46,30.03,29.89,17,4,17,0.00
2014-9-1,95.9,86.1,77.9,76.0,72.5,69.3,85,65,46,29.98,29.87,18,7,18,0.00
2014-9-2,97.0,87.9,79.2,75.5,73.2,70.8,81,63,46,30.04,29.90,14,5,14,0.00
2014-9-3,96.3,86.7,78.4,74.7,71.6,66.9,82,63,41,30.06,29.94,14,4,14,0.00
2014-9-4,96.3,86.5,78.4,74.3,71.1,68.3,81,61,43,30.11,29.98,15,4,15,0.00
2014-9-5,95.2,85.9,77.5,74.1,70.8,67.9,82,62,44,30.16,30.00,8,1,9,0.00
2014-9-6,94.5,81.8,74.3,75.2,71.8,69.7,87,73,48,30.14,30.01,21,1,21,0.39
2014-9-7,74.3,73.1,72.0,70.2,68.7,67.5,87,86,85,30.13,30.09,5,1,5,0.00
2014-9-8,85.8,85.8,85.8,71.8,71.8,71.8,63,63,63,30.01,30.01,3,3,4,0.00
2014-9-9,87.4,87.4,87.4,68.8,68.8,68.8,54,54,54,29.87,29.87,3,3,9,0.00
2014-9-10,89.6,89.6,89.6,70.8,70.8,70.8,54,54,54,29.84,29.84,3,3,11,0.00
2014-9-11,76.6,76.6,76.6,68.9,68.9,68.9,77,77,77,30.06,30.06,0,0,3,0.00
2014-9-12,67.1,63.7,60.8,61.6,59.3,57.2,89,86,82,30.30,30.17,11,3,11,0.00
2014-9-13,72.1,63.7,57.2,60.6,57.1,53.7,90,79,66,30.36,30.25,13,1,13,0.00
2014-9-14,80.1,71.5,65.5,67.8,63.5,59.8,85,76,65,30.33,30.18,2,0,2,0.00
2014-9-15,85.5,77.2,71.1,72.1,69.3,66.2,90,77,64,30.22,30.13,3,0,3,0.03
2014-9-16,89.1,81.4,74.8,74.6,71.6,69.7,86,73,57,30.19,30.01,5,0,5,0.00
2014-9-17,90.7,82.4,75.7,74.4,72.4,70.0,86,73,56,30.05,29.90,12,1,12,0.00
2014-9-18,89.1,80.9,75.6,75.2,72.4,70.5,87,76,57,29.99,29.88,9,0,9,0.00
2014-9-19,85.1,77.7,72.3,74.5,70.3,67.2,89,79,65,30.03,29.93,8,0,8,0.00
2014-9-20,90.5,81.5,74.5,73.4,69.5,64.6,87,69,43,30.07,29.97,8,1,8,0.00
2014-9-21,92.7,81.3,70.9,71.3,66.9,63.9,84,64,40,30.17,30.04,6,0,6,0.00
2014-9-22,87.4,79.9,74.5,70.9,60.8,52.9,73,54,34,30.26,30.12,9,1,9,0.00
2014-9-23,84.7,74.9,66.4,58.6,55.7,51.5,70,52,33,30.26,30.11,8,0,8,0.00
2014-9-24,87.4,74.2,61.3,56.5,53.0,47.1,78,51,26,30.25,30.12,7,0,7,0.00
2014-9-25,87.6,75.7,63.5,61.7,57.3,54.0,76,55,36,30.25,30.12,8,0,8,0.00
2014-9-26,86.9,77.3,67.8,67.3,61.3,58.4,80,59,43,30.19,30.05,6,0,6,0.00
2014-9-27,87.3,78.6,69.3,66.3,62.0,59.7,79,58,45,30.17,30.02,10,0,10,0.00
2014-9-28,87.1,78.3,68.5,66.7,63.6,61.6,82,62,45,30.14,30.02,7,0,7,0.00
2014-9-29,88.3,80.1,67.8,66.5,63.8,61.1,81,59,45,30.08,29.93,6,0,6,0.00
2014-9-30,88.9,81.3,72.7,71.8,68.0,66.0,84,65,49,29.95,29.78,9,1,9,0.00
2014-10-1,92.3,84.9,74.3,73.3,69.8,67.1,86,62,49,29.88,29.76,13,3,13,0.00
2014-10-2,92.5,79.0,70.7,74.8,70.2,56.6,84,75,45,29.99,29.70,38,3,38,1.33
2014-10-3,80.8,71.8,67.1,57.0,52.4,48.2,63,51,36,30.26,29.99,7,1,7,0.00
2014-10-4,80.1,67.2,54.7,49.2,43.1,36.7,74,45,23,30.28,29.99,9,1,9,0.00
2014-10-5,85.3,73.0,62.8,65.4,57.9,41.0,80,60,38,29.99,29.83,12,3,12,0.00
2014-10-6,86.2,77.0,70.3,70.3,66.2,62.3,84,70,57,29.97,29.83,12,3,12,0.03
2014-10-7,96.1,81.6,70.5,72.6,67.5,64.1,87,65,39,29.98,29.87,13,3,13,0.00
2014-10-8,90.1,81.4,74.3,72.5,69.2,65.2,85,68,46,30.07,29.95,16,3,16,0.00
2014-10-9,92.5,82.6,75.9,72.6,70.1,65.8,85,68,43,30.04,29.88,15,4,15,0.00
2014-10-10,92.3,82.3,69.3,71.6,68.3,63.0,83,64,45,30.00,29.85,10,2,12,0.11
2014-10-11,69.3,61.1,57.9,63.4,55.6,52.5,88,82,76,30.16,29.94,12,2,12,0.33
2014-10-12,72.9,63.9,55.6,69.0,58.3,51.1,90,82,72,30.09,29.67,14,3,14,0.00
2014-10-13,75.0,64.7,59.4,71.6,57.0,49.6,91,77,61,30.03,29.62,21,5,21,1.30
2014-10-14,76.8,64.0,54.0,49.6,45.6,40.7,72,54,29,30.17,30.02,12,2,12,0.00
2014-10-15,82.9,66.4,53.2,54.8,50.0,45.8,79,58,33,30.15,30.01,7,0,7,0.00
2014-10-16,88.0,72.8,59.9,53.3,51.1,47.7,71,49,26,30.01,29.84,11,1,11,0.00
2014-10-17,86.0,73.4,62.4,61.1,55.6,50.7,73,55,40,30.01,29.84,5,0,5,0.00
2014-10-18,73.4,69.3,66.0,61.1,58.2,52.6,72,68,62,30.10,30.00,1,0,1,0.00
2014-10-20,73.0,73.0,73.0,61.9,61.9,61.9,68,68,68,30.09,30.09,0,0,5,0.00
2014-10-21,72.9,72.9,72.9,60.4,60.4,60.4,65,65,65,30.10,30.10,0,0,0,0.00
2014-10-22,73.6,73.6,73.6,60.2,60.2,60.2,63,63,63,30.15,30.15,0,0,0,0.00
2014-10-23,71.4,71.4,71.4,59.0,59.0,59.0,65,65,65,30.16,30.16,0,0,1,0.00
2014-10-24,75.4,75.4,75.4,62.4,62.4,62.4,64,64,64,30.14,30.14,0,0,0,0.00
2014-10-25,77.9,77.9,77.9,62.9,62.9,62.9,60,60,60,30.10,30.10,0,0,4,0.00
2014-10-26,86.9,79.4,67.6,64.1,60.3,56.5,79,53,41,30.07,29.89,12,1,12,0.00
2014-10-27,84.4,74.8,66.7,64.6,61.4,56.9,83,64,45,29.93,29.82,14,2,14,0.00
2014-10-28,79.0,73.9,69.8,65.3,62.2,51.9,82,68,51,30.17,29.86,7,0,7,0.00
2014-10-29,78.3,68.2,59.4,53.9,50.6,47.8,71,54,38,30.29,30.16,5,0,5,0.00
2014-10-30,79.9,67.6,58.3,60.2,53.7,48.2,75,62,50,30.22,30.09,5,0,5,0.00
2014-10-31,69.6,61.1,55.8,57.9,46.0,36.5,76,58,42,30.38,30.21,8,1,8,0.00
2014-11-1,64.6,54.0,44.6,37.6,34.7,32.0,68,49,33,30.48,30.32,8,0,8,0.00
2014-11-2,68.5,57.7,48.4,49.9,42.1,34.2,68,56,45,30.37,30.19,13,1,13,0.00
2014-11-3,75.0,66.5,57.2,60.7,56.0,48.9,82,70,60,30.22,30.10,13,1,13,0.00
2014-11-4,71.1,63.1,55.2,63.5,58.1,52.0,90,84,69,30.29,30.08,9,0,9,0.56
2014-11-5,57.2,55.5,53.6,54.9,52.8,50.6,92,91,89,30.31,30.22,5,0,5,0.08
2014-11-6,68.7,57.5,47.8,53.4,48.5,44.8,91,74,47,30.41,30.30,4,0,4,0.00
2014-11-7,68.5,56.3,45.5,46.4,43.8,40.2,87,65,43,30.36,30.07,7,0,7,0.00
2014-11-8,70.5,59.0,51.1,50.2,43.9,40.1,80,59,37,30.23,30.05,8,1,9,0.00
2014-11-9,75.7,58.5,44.8,47.8,43.1,38.2,79,59,36,30.22,29.88,10,0,10,0.00
2014-11-10,81.9,66.0,53.4,59.0,51.6,45.0,73,61,41,29.88,29.64,14,2,14,0.00
2014-11-11,67.5,47.4,41.0,58.9,32.6,27.1,75,57,45,30.30,29.69,9,0,9,0.00
2014-11-12,43.2,37.4,33.8,28.0,21.1,15.5,62,52,41,30.52,30.30,9,0,9,0.00
2014-11-13,43.3,35.4,31.8,18.1,12.7,9.3,54,39,30,30.64,30.48,0,0,0,0.00
2014-11-14,43.0,38.1,30.9,23.3,19.7,17.6,62,48,37,30.49,30.28,0,0,0,0.00
2014-11-15,47.3,43.9,41.0,40.9,32.7,23.1,88,66,48,30.30,30.02,6,0,6,0.00
2014-11-16,44.2,39.7,30.0,40.9,35.6,24.6,89,85,78,30.28,29.99,0,0,0,0.03
2014-11-17,47.8,35.2,28.2,24.9,23.3,21.3,81,64,37,30.47,30.27,0,0,0,0.00
2014-11-18,59.5,43.4,31.1,26.8,23.6,21.3,72,49,24,30.50,30.30,0,0,0,0.00
2014-11-19,67.8,51.5,38.5,41.0,32.7,22.1,67,49,33,30.31,30.11,0,0,0,0.00
2014-11-20,73.2,59.6,47.3,58.9,49.3,40.3,84,70,46,30.13,29.98,0,0,0,0.00
2014-11-21,68.5,64.5,61.2,63.2,60.4,57.6,90,87,83,30.16,30.06,0,0,0,0.00
2014-11-22,64.9,61.0,57.6,61.6,58.5,55.0,93,91,89,30.12,29.70,0,0,0,0.58
2014-11-23,78.8,61.6,51.4,57.2,49.1,39.3,93,68,27,29.86,29.42,15,0,15,0.00
2014-11-24,62.1,51.4,44.2,40.0,34.6,26.8,75,55,28,30.21,29.86,0,0,0,0.00
2014-11-25,66.4,50.5,39.0,36.6,33.5,29.5,78,54,26,30.35,30.13,0,0,0,0.00
2014-11-26,69.4,53.7,45.1,39.8,35.1,30.5,64,50,34,30.43,30.05,0,0,0,0.00
2014-11-27,64.4,50.8,43.0,36.5,31.6,26.6,62,49,29,30.59,30.38,0,0,0,0.00
2014-11-28,74.8,58.7,45.0,54.7,44.2,32.9,76,59,49,30.38,30.00,0,0,0,0.00
2014-11-29,83.7,65.0,51.8,60.0,53.1,46.7,86,67,39,30.01,29.87,0,0,0,0.00
2014-11-30,85.5,70.7,62.8,62.8,60.5,58.7,89,72,44,30.17,29.94,0,0,0,0.00
2014-12-1,66.7,42.7,34.9,61.4,27.9,20.9,84,56,44,30.54,30.16,0,0,0,0.00
2014-12-2,52.0,42.3,34.5,41.3,27.9,21.0,72,57,44,30.50,30.16,0,0,0,0.00
2014-12-3,59.9,55.4,50.0,55.2,49.7,41.3,86,81,72,30.23,30.14,0,0,0,0.00
2014-12-4,65.7,61.0,57.6,59.9,56.9,53.4,89,86,80,30.22,30.08,0,0,0,0.00
2014-12-5,80.1,68.7,60.3,66.3,61.4,53.7,94,79,58,30.27,30.03,0,0,0,0.00
2014-12-6,69.3,59.2,51.3,53.7,50.0,45.1,81,72,54,30.48,30.27,0,0,0,0.00
2014-12-7,54.5,50.6,46.8,48.6,45.7,42.7,89,83,77,30.48,30.32,0,0,0,0.00
2014-12-8,66.4,50.4,41.9,52.1,44.8,38.1,91,81,59,30.42,30.32,0,0,0,0.00
2014-12-9,62.1,48.9,42.1,52.6,44.4,38.6,92,85,69,30.43,30.29,0,0,0,0.00
2014-12-10,61.3,52.5,43.0,51.2,46.7,39.6,92,81,69,30.30,30.17,0,0,0,0.00
2014-12-11,66.0,60.4,54.3,58.5,54.7,48.9,88,82,76,30.25,30.17,0,0,0,0.00
2014-12-12,73.6,64.1,59.5,62.4,58.3,56.0,89,82,66,30.32,30.22,0,0,0,0.00
2014-12-13,76.1,64.3,58.8,60.1,57.3,54.3,88,79,56,30.27,30.10,0,0,0,0.00
2014-12-14,69.3,64.7,62.4,65.3,60.9,58.0,90,87,84,30.10,29.85,0,0,0,0.03
2014-12-15,71.1,58.9,51.6,61.2,42.0,34.1,90,56,31,30.23,29.86,0,0,0,0.00
2014-12-16,60.8,48.7,41.7,36.9,33.0,28.8,70,55,41,30.42,30.23,0,0,0,0.00
2014-12-17,49.8,46.7,44.4,42.9,38.7,35.1,88,74,66,30.37,30.09,0,0,0,0.09
2014-12-18,51.3,48.2,45.1,47.3,44.7,41.8,91,88,84,30.23,30.05,0,0,0,0.00
2014-12-19,50.2,48.6,46.9,46.5,45.2,43.9,91,88,86,30.27,30.12,0,0,0,0.00
2014-12-20,49.5,48.3,46.9,45.4,44.5,43.1,88,87,85,30.30,30.20,0,0,0,0.00
2014-12-21,53.4,50.8,48.6,50.0,46.7,44.9,88,86,81,30.21,29.75,0,0,0,0.00
2014-12-22,66.7,57.3,52.2,52.4,47.8,44.8,90,72,49,29.75,29.59,0,0,0,0.00
2014-12-23,54.0,50.0,45.3,46.2,40.3,32.7,87,70,55,29.99,29.70,0,0,0,0.00
2014-12-24,59.2,46.0,40.1,36.3,33.4,30.4,73,62,41,30.11,29.97,0,0,0,0.00
2014-12-25,67.3,49.8,37.0,45.0,33.6,29.0,76,57,30,30.05,29.92,0,0,0,0.00
2014-12-26,70.7,60.5,52.2,61.8,55.1,45.0,90,83,73,30.03,29.88,0,0,0,0.00
2014-12-27,64.6,44.7,37.2,61.9,38.0,28.0,91,77,69,30.36,30.03,0,0,0,0.00
2014-12-28,57.2,41.3,36.7,29.2,27.2,25.5,70,58,31,30.34,30.14,0,0,0,0.00
2014-12-29,64.2,44.4,34.5,40.4,33.2,26.8,82,66,40,30.26,30.04,0,0,0,0.00
2014-12-30,47.3,43.8,39.9,38.6,33.5,29.2,82,68,51,30.56,30.26,0,0,0,0.00
2014-12-31,39.9,36.2,34.0,29.7,27.0,25.7,74,69,65,30.64,30.42,0,0,0,0.00
2015-1-1,37.9,36.3,34.3,35.3,32.3,27.8,90,85,73,30.43,30.21,0,0,0,0.03
2015-1-2,41.9,39.9,38.1,39.7,37.6,35.4,92,91,90,30.23,29.95,0,0,0,0.06